sensor_id;sensor_type;location;lat;lon;timestamp;temperature;humidity
15182;DHT22;7692;50.602;8.692;2023-12-29T00:19:24;7.70;99.90
15182;DHT22;7692;50.602;8.692;2023-12-29T00:21:52;7.80;99.90
15182;DHT22;7692;50.602;8.692;2023-12-29T00:24:20;7.90;99.90
15182;DHT22;7692;50.602;8.692;2023-12-29T00:26:48;7.90;99.90
15182;DHT22;7692;50.602;8.692;2023-12-29T00:29:16;7.90;99.90
15182;DHT22;7692;50.602;8.692;2023-12-29T00:31:44;7.90;99.90
15182;DHT22;7692;50.602;8.692;2023-12-29T00:34:13;7.80;99.90
15182;DHT22;7692;50.602;8.692;2023-12-29T00:36:42;7.80;99.90
15182;DHT22;7692;50.602;8.692;2023-12-29T00:39:10;7.80;99.90
15182;DHT22;7692;50.602;8.692;2023-12-29T00:41:39;7.80;99.90
15182;DHT22;7692;50.602;8.692;2023-12-29T00:44:10;7.80;99.90
15182;DHT22;7692;50.602;8.692;2023-12-29T00:46:38;7.80;99.90
15182;DHT22;7692;50.602;8.692;2023-12-29T00:49:06;7.90;99.90
15182;DHT22;7692;50.602;8.692;2023-12-29T00:51:40;8.00;99.90
15182;DHT22;7692;50.602;8.692;2023-12-29T00:54:08;8.00;99.90
15182;DHT22;7692;50.602;8.692;2023-12-29T00:56:36;8.20;99.90
15182;DHT22;7692;50.602;8.692;2023-12-29T00:59:04;8.20;99.90
15182;DHT22;7692;50.602;8.692;2023-12-29T01:01:34;8.20;99.90
15182;DHT22;7692;50.602;8.692;2023-12-29T01:04:03;8.20;99.90
15182;DHT22;7692;50.602;8.692;2023-12-29T01:06:32;8.20;99.90
15182;DHT22;7692;50.602;8.692;2023-12-29T01:09:02;8.30;99.90
15182;DHT22;7692;50.602;8.692;2023-12-29T01:11:30;8.30;99.90
15182;DHT22;7692;50.602;8.692;2023-12-29T01:13:58;8.30;99.90
15182;DHT22;7692;50.602;8.692;2023-12-29T01:16:26;8.30;99.90
15182;DHT22;7692;50.602;8.692;2023-12-29T01:18:54;8.30;99.90
15182;DHT22;7692;50.602;8.692;2023-12-29T01:21:23;8.40;99.90
15182;DHT22;7692;50.602;8.692;2023-12-29T01:23:50;8.50;99.90
15182;DHT22;7692;50.602;8.692;2023-12-29T01:26:20;8.40;99.90
15182;DHT22;7692;50.602;8.692;2023-12-29T01:28:48;8.50;99.90
15182;DHT22;7692;50.602;8.692;2023-12-29T01:31:16;8.50;99.90
15182;DHT22;7692;50.602;8.692;2023-12-29T01:33:44;8.50;99.90
15182;DHT22;7692;50.602;8.692;2023-12-29T01:36:17;8.50;99.90
15182;DHT22;7692;50.602;8.692;2023-12-29T01:38:51;8.60;99.90
15182;DHT22;7692;50.602;8.692;2023-12-29T01:41:21;8.60;99.90
15182;DHT22;7692;50.602;8.692;2023-12-29T01:44:18;8.70;99.90
15182;DHT22;7692;50.602;8.692;2023-12-29T01:46:49;8.80;99.90
15182;DHT22;7692;50.602;8.692;2023-12-29T01:49:19;8.80;99.90
15182;DHT22;7692;50.602;8.692;2023-12-29T01:51:50;8.80;99.90
15182;DHT22;7692;50.602;8.692;2023-12-29T01:54:20;8.70;99.90
15182;DHT22;7692;50.602;8.692;2023-12-29T01:56:50;8.70;99.90
15182;DHT22;7692;50.602;8.692;2023-12-29T01:59:22;8.70;99.90
15182;DHT22;7692;50.602;8.692;2023-12-29T02:01:53;8.70;99.90
15182;DHT22;7692;50.602;8.692;2023-12-29T02:04:24;8.80;99.90
15182;DHT22;7692;50.602;8.692;2023-12-29T02:06:53;8.80;99.90
15182;DHT22;7692;50.602;8.692;2023-12-29T02:09:21;8.70;99.90
15182;DHT22;7692;50.602;8.692;2023-12-29T02:11:51;8.70;99.90
15182;DHT22;7692;50.602;8.692;2023-12-29T02:14:19;8.60;99.90
15182;DHT22;7692;50.602;8.692;2023-12-29T02:16:55;8.50;99.90
15182;DHT22;7692;50.602;8.692;2023-12-29T02:19:37;8.50;99.90
15182;DHT22;7692;50.602;8.692;2023-12-29T02:22:07;8.60;99.90
15182;DHT22;7692;50.602;8.692;2023-12-29T02:24:36;8.60;99.90
15182;DHT22;7692;50.602;8.692;2023-12-29T02:29:56;8.40;99.90
15182;DHT22;7692;50.602;8.692;2023-12-29T02:32:30;8.50;99.90
15182;DHT22;7692;50.602;8.692;2023-12-29T02:34:59;8.50;99.90
15182;DHT22;7692;50.602;8.692;2023-12-29T02:37:28;8.60;99.90
15182;DHT22;7692;50.602;8.692;2023-12-29T02:39:59;8.60;99.90
15182;DHT22;7692;50.602;8.692;2023-12-29T02:42:29;8.60;99.90
15182;DHT22;7692;50.602;8.692;2023-12-29T02:44:57;8.60;99.90
15182;DHT22;7692;50.602;8.692;2023-12-29T02:47:25;8.70;99.90
15182;DHT22;7692;50.602;8.692;2023-12-29T02:49:53;8.70;99.90
15182;DHT22;7692;50.602;8.692;2023-12-29T02:52:21;8.70;99.90
15182;DHT22;7692;50.602;8.692;2023-12-29T02:54:49;8.70;99.90
15182;DHT22;7692;50.602;8.692;2023-12-29T02:57:17;8.80;99.90
15182;DHT22;7692;50.602;8.692;2023-12-29T02:59:47;8.70;99.90
15182;DHT22;7692;50.602;8.692;2023-12-29T03:02:15;8.70;99.90
15182;DHT22;7692;50.602;8.692;2023-12-29T03:04:43;8.70;99.90
15182;DHT22;7692;50.602;8.692;2023-12-29T03:07:11;8.80;99.90
15182;DHT22;7692;50.602;8.692;2023-12-29T03:09:39;8.80;99.90
15182;DHT22;7692;50.602;8.692;2023-12-29T03:12:07;8.70;99.90
15182;DHT22;7692;50.602;8.692;2023-12-29T03:14:35;8.70;99.90
15182;DHT22;7692;50.602;8.692;2023-12-29T03:17:04;8.70;99.90
15182;DHT22;7692;50.602;8.692;2023-12-29T03:19:33;8.70;99.90
15182;DHT22;7692;50.602;8.692;2023-12-29T03:22:01;8.70;99.90
15182;DHT22;7692;50.602;8.692;2023-12-29T03:24:30;8.70;99.90
15182;DHT22;7692;50.602;8.692;2023-12-29T03:26:58;8.70;99.90
15182;DHT22;7692;50.602;8.692;2023-12-29T03:29:26;8.70;99.90
15182;DHT22;7692;50.602;8.692;2023-12-29T03:31:54;8.70;99.90
15182;DHT22;7692;50.602;8.692;2023-12-29T03:34:23;8.70;99.90
15182;DHT22;7692;50.602;8.692;2023-12-29T03:36:51;8.70;99.90
15182;DHT22;7692;50.602;8.692;2023-12-29T03:39:19;8.80;99.90
15182;DHT22;7692;50.602;8.692;2023-12-29T03:41:47;8.80;99.90
15182;DHT22;7692;50.602;8.692;2023-12-29T03:44:15;8.90;99.90
15182;DHT22;7692;50.602;8.692;2023-12-29T03:46:44;8.90;99.90
15182;DHT22;7692;50.602;8.692;2023-12-29T03:49:12;9.00;99.90
15182;DHT22;7692;50.602;8.692;2023-12-29T03:51:41;9.00;99.90
15182;DHT22;7692;50.602;8.692;2023-12-29T03:54:09;9.00;99.90
15182;DHT22;7692;50.602;8.692;2023-12-29T03:56:37;9.10;99.90
15182;DHT22;7692;50.602;8.692;2023-12-29T03:59:06;9.10;99.90
15182;DHT22;7692;50.602;8.692;2023-12-29T04:01:34;9.10;99.90
15182;DHT22;7692;50.602;8.692;2023-12-29T04:04:02;9.10;99.90
15182;DHT22;7692;50.602;8.692;2023-12-29T04:06:30;9.10;99.90
15182;DHT22;7692;50.602;8.692;2023-12-29T04:09:00;9.20;99.90
15182;DHT22;7692;50.602;8.692;2023-12-29T04:11:28;9.20;99.90
15182;DHT22;7692;50.602;8.692;2023-12-29T04:13:56;9.20;99.90
15182;DHT22;7692;50.602;8.692;2023-12-29T04:16:24;9.20;99.90
15182;DHT22;7692;50.602;8.692;2023-12-29T04:18:52;9.20;99.90
15182;DHT22;7692;50.602;8.692;2023-12-29T04:23:48;9.20;99.90
15182;DHT22;7692;50.602;8.692;2023-12-29T04:26:19;9.30;99.90
15182;DHT22;7692;50.602;8.692;2023-12-29T04:28:47;9.30;99.90
15182;DHT22;7692;50.602;8.692;2023-12-29T04:31:15;9.40;99.90
15182;DHT22;7692;50.602;8.692;2023-12-29T04:33:43;9.30;99.90
15182;DHT22;7692;50.602;8.692;2023-12-29T04:36:12;9.30;99.90
15182;DHT22;7692;50.602;8.692;2023-12-29T04:41:08;9.40;99.90
15182;DHT22;7692;50.602;8.692;2023-12-29T04:43:37;9.30;99.90
15182;DHT22;7692;50.602;8.692;2023-12-29T04:46:05;9.40;99.90
15182;DHT22;7692;50.602;8.692;2023-12-29T04:48:34;9.40;99.90
15182;DHT22;7692;50.602;8.692;2023-12-29T04:51:02;9.40;99.90
15182;DHT22;7692;50.602;8.692;2023-12-29T04:53:30;9.40;99.90
15182;DHT22;7692;50.602;8.692;2023-12-29T04:55:58;9.40;99.90
15182;DHT22;7692;50.602;8.692;2023-12-29T05:00:56;9.40;99.90
15182;DHT22;7692;50.602;8.692;2023-12-29T05:03:24;9.50;99.90
15182;DHT22;7692;50.602;8.692;2023-12-29T05:05:53;9.50;99.90
15182;DHT22;7692;50.602;8.692;2023-12-29T05:08:21;9.50;99.90
15182;DHT22;7692;50.602;8.692;2023-12-29T05:10:49;9.50;99.90
15182;DHT22;7692;50.602;8.692;2023-12-29T05:13:17;9.50;99.90
15182;DHT22;7692;50.602;8.692;2023-12-29T05:15:45;9.50;99.90
15182;DHT22;7692;50.602;8.692;2023-12-29T05:18:15;9.50;99.90
15182;DHT22;7692;50.602;8.692;2023-12-29T05:20:43;9.50;99.90
15182;DHT22;7692;50.602;8.692;2023-12-29T05:23:11;9.60;99.90
15182;DHT22;7692;50.602;8.692;2023-12-29T05:28:07;9.60;99.90
15182;DHT22;7692;50.602;8.692;2023-12-29T05:30:36;9.50;99.90
15182;DHT22;7692;50.602;8.692;2023-12-29T05:33:04;9.50;99.90
15182;DHT22;7692;50.602;8.692;2023-12-29T05:35:34;9.60;99.90
15182;DHT22;7692;50.602;8.692;2023-12-29T05:38:02;9.50;99.90
15182;DHT22;7692;50.602;8.692;2023-12-29T05:40:30;9.50;99.90
15182;DHT22;7692;50.602;8.692;2023-12-29T05:42:58;9.50;99.90
15182;DHT22;7692;50.602;8.692;2023-12-29T05:45:26;9.60;99.90
15182;DHT22;7692;50.602;8.692;2023-12-29T05:47:54;9.60;99.90
15182;DHT22;7692;50.602;8.692;2023-12-29T05:50:22;9.60;99.90
15182;DHT22;7692;50.602;8.692;2023-12-29T05:52:52;9.60;99.90
15182;DHT22;7692;50.602;8.692;2023-12-29T05:55:20;9.60;99.90
15182;DHT22;7692;50.602;8.692;2023-12-29T05:57:48;9.60;99.90
15182;DHT22;7692;50.602;8.692;2023-12-29T06:00:16;9.60;99.90
15182;DHT22;7692;50.602;8.692;2023-12-29T06:02:44;9.60;99.90
15182;DHT22;7692;50.602;8.692;2023-12-29T06:05:12;9.60;99.90
15182;DHT22;7692;50.602;8.692;2023-12-29T06:07:41;9.60;99.90
15182;DHT22;7692;50.602;8.692;2023-12-29T06:10:11;9.60;99.90
15182;DHT22;7692;50.602;8.692;2023-12-29T06:12:39;9.60;99.90
15182;DHT22;7692;50.602;8.692;2023-12-29T06:15:08;9.60;99.90
15182;DHT22;7692;50.602;8.692;2023-12-29T06:17:38;9.60;99.90
15182;DHT22;7692;50.602;8.692;2023-12-29T06:20:08;9.70;99.90
15182;DHT22;7692;50.602;8.692;2023-12-29T06:22:39;9.60;99.90
15182;DHT22;7692;50.602;8.692;2023-12-29T06:25:10;9.60;99.90
15182;DHT22;7692;50.602;8.692;2023-12-29T06:27:39;9.50;99.90
15182;DHT22;7692;50.602;8.692;2023-12-29T06:30:08;9.50;99.90
15182;DHT22;7692;50.602;8.692;2023-12-29T06:32:37;9.50;99.90
15182;DHT22;7692;50.602;8.692;2023-12-29T06:35:07;9.50;99.90
15182;DHT22;7692;50.602;8.692;2023-12-29T06:37:36;9.50;99.90
15182;DHT22;7692;50.602;8.692;2023-12-29T06:40:06;9.60;99.90
15182;DHT22;7692;50.602;8.692;2023-12-29T06:45:05;9.60;99.90
15182;DHT22;7692;50.602;8.692;2023-12-29T06:47:34;9.60;99.90
15182;DHT22;7692;50.602;8.692;2023-12-29T06:50:03;9.60;99.90
15182;DHT22;7692;50.602;8.692;2023-12-29T06:52:32;9.50;99.90
15182;DHT22;7692;50.602;8.692;2023-12-29T06:55:01;9.50;99.90
15182;DHT22;7692;50.602;8.692;2023-12-29T06:57:30;9.50;99.90
15182;DHT22;7692;50.602;8.692;2023-12-29T06:59:59;9.50;99.90
15182;DHT22;7692;50.602;8.692;2023-12-29T07:02:27;9.50;99.90
15182;DHT22;7692;50.602;8.692;2023-12-29T07:04:55;9.50;99.90
15182;DHT22;7692;50.602;8.692;2023-12-29T07:09:52;9.50;99.90
15182;DHT22;7692;50.602;8.692;2023-12-29T07:14:49;9.50;99.90
15182;DHT22;7692;50.602;8.692;2023-12-29T07:17:20;9.50;99.90
15182;DHT22;7692;50.602;8.692;2023-12-29T07:19:48;9.50;99.90
15182;DHT22;7692;50.602;8.692;2023-12-29T07:22:16;9.40;99.90
15182;DHT22;7692;50.602;8.692;2023-12-29T07:24:45;9.50;99.90
15182;DHT22;7692;50.602;8.692;2023-12-29T07:27:13;9.50;99.90
15182;DHT22;7692;50.602;8.692;2023-12-29T07:29:41;9.50;99.90
15182;DHT22;7692;50.602;8.692;2023-12-29T07:32:09;9.50;99.90
15182;DHT22;7692;50.602;8.692;2023-12-29T07:34:38;9.50;99.90
15182;DHT22;7692;50.602;8.692;2023-12-29T07:37:06;9.40;99.90
15182;DHT22;7692;50.602;8.692;2023-12-29T07:39:36;9.40;99.90
15182;DHT22;7692;50.602;8.692;2023-12-29T07:42:04;9.40;99.90
15182;DHT22;7692;50.602;8.692;2023-12-29T07:47:01;9.50;99.90
15182;DHT22;7692;50.602;8.692;2023-12-29T07:49:29;9.50;99.90
15182;DHT22;7692;50.602;8.692;2023-12-29T07:51:58;9.40;99.90
15182;DHT22;7692;50.602;8.692;2023-12-29T07:54:26;9.40;99.90
15182;DHT22;7692;50.602;8.692;2023-12-29T07:56:54;9.40;99.90
15182;DHT22;7692;50.602;8.692;2023-12-29T07:59:22;9.40;99.90
15182;DHT22;7692;50.602;8.692;2023-12-29T08:01:50;9.30;99.90
15182;DHT22;7692;50.602;8.692;2023-12-29T08:04:18;9.30;99.90
15182;DHT22;7692;50.602;8.692;2023-12-29T08:06:46;9.30;99.90
15182;DHT22;7692;50.602;8.692;2023-12-29T08:09:16;9.30;99.90
15182;DHT22;7692;50.602;8.692;2023-12-29T08:14:12;9.30;99.90
15182;DHT22;7692;50.602;8.692;2023-12-29T08:16:40;9.40;99.90
15182;DHT22;7692;50.602;8.692;2023-12-29T08:19:08;9.40;99.90
15182;DHT22;7692;50.602;8.692;2023-12-29T08:21:37;9.40;99.90
15182;DHT22;7692;50.602;8.692;2023-12-29T08:24:05;9.40;99.90
15182;DHT22;7692;50.602;8.692;2023-12-29T08:26:43;9.30;99.90
15182;DHT22;7692;50.602;8.692;2023-12-29T08:29:11;9.30;99.90
15182;DHT22;7692;50.602;8.692;2023-12-29T08:31:39;9.40;99.90
15182;DHT22;7692;50.602;8.692;2023-12-29T08:34:08;9.40;99.90
15182;DHT22;7692;50.602;8.692;2023-12-29T08:36:36;9.40;99.90
15182;DHT22;7692;50.602;8.692;2023-12-29T08:39:04;9.50;99.90
15182;DHT22;7692;50.602;8.692;2023-12-29T08:41:31;9.50;99.90
15182;DHT22;7692;50.602;8.692;2023-12-29T08:44:01;9.50;99.90
15182;DHT22;7692;50.602;8.692;2023-12-29T08:46:30;9.60;99.90
15182;DHT22;7692;50.602;8.692;2023-12-29T08:48:58;9.60;99.90
15182;DHT22;7692;50.602;8.692;2023-12-29T08:51:27;9.70;99.90
15182;DHT22;7692;50.602;8.692;2023-12-29T08:53:55;9.70;99.90
15182;DHT22;7692;50.602;8.692;2023-12-29T08:56:23;9.80;99.90
15182;DHT22;7692;50.602;8.692;2023-12-29T08:58:54;9.80;99.90
15182;DHT22;7692;50.602;8.692;2023-12-29T09:01:24;9.80;99.90
15182;DHT22;7692;50.602;8.692;2023-12-29T09:03:52;9.80;99.90
15182;DHT22;7692;50.602;8.692;2023-12-29T09:06:20;9.90;99.90
15182;DHT22;7692;50.602;8.692;2023-12-29T09:08:48;9.90;99.90
15182;DHT22;7692;50.602;8.692;2023-12-29T09:11:16;9.90;99.90
15182;DHT22;7692;50.602;8.692;2023-12-29T09:13:44;9.90;99.90
15182;DHT22;7692;50.602;8.692;2023-12-29T09:16:13;9.90;99.90
15182;DHT22;7692;50.602;8.692;2023-12-29T09:18:42;9.90;99.90
15182;DHT22;7692;50.602;8.692;2023-12-29T09:23:39;10.10;99.90
15182;DHT22;7692;50.602;8.692;2023-12-29T09:26:08;10.20;99.90
15182;DHT22;7692;50.602;8.692;2023-12-29T09:28:36;10.20;99.90
15182;DHT22;7692;50.602;8.692;2023-12-29T09:31:04;10.30;99.90
15182;DHT22;7692;50.602;8.692;2023-12-29T09:33:32;10.30;99.90
15182;DHT22;7692;50.602;8.692;2023-12-29T09:36:01;10.40;99.90
15182;DHT22;7692;50.602;8.692;2023-12-29T09:38:29;10.30;99.90
15182;DHT22;7692;50.602;8.692;2023-12-29T09:41:03;10.30;99.90
15182;DHT22;7692;50.602;8.692;2023-12-29T09:43:32;10.30;99.90
15182;DHT22;7692;50.602;8.692;2023-12-29T09:46:02;10.30;99.90
15182;DHT22;7692;50.602;8.692;2023-12-29T09:48:31;10.30;99.90
15182;DHT22;7692;50.602;8.692;2023-12-29T09:51:03;10.30;99.90
15182;DHT22;7692;50.602;8.692;2023-12-29T09:53:31;10.30;99.90
15182;DHT22;7692;50.602;8.692;2023-12-29T09:55:59;10.30;99.90
15182;DHT22;7692;50.602;8.692;2023-12-29T10:00:56;10.30;99.90
15182;DHT22;7692;50.602;8.692;2023-12-29T10:03:24;10.40;99.90
15182;DHT22;7692;50.602;8.692;2023-12-29T10:05:54;10.40;99.90
15182;DHT22;7692;50.602;8.692;2023-12-29T10:08:26;10.50;99.90
15182;DHT22;7692;50.602;8.692;2023-12-29T10:10:58;10.50;99.90
15182;DHT22;7692;50.602;8.692;2023-12-29T10:13:27;10.40;99.90
15182;DHT22;7692;50.602;8.692;2023-12-29T10:16:00;10.40;99.90
15182;DHT22;7692;50.602;8.692;2023-12-29T10:18:36;10.40;99.90
15182;DHT22;7692;50.602;8.692;2023-12-29T10:21:12;10.30;99.90
15182;DHT22;7692;50.602;8.692;2023-12-29T10:23:50;10.30;99.90
15182;DHT22;7692;50.602;8.692;2023-12-29T10:26:22;10.40;99.90
15182;DHT22;7692;50.602;8.692;2023-12-29T10:28:52;10.40;99.90
15182;DHT22;7692;50.602;8.692;2023-12-29T10:31:23;10.40;99.90
15182;DHT22;7692;50.602;8.692;2023-12-29T10:33:51;10.40;99.90
15182;DHT22;7692;50.602;8.692;2023-12-29T10:36:20;10.40;99.90
15182;DHT22;7692;50.602;8.692;2023-12-29T10:39:05;10.40;99.90
15182;DHT22;7692;50.602;8.692;2023-12-29T10:41:33;10.40;99.90
15182;DHT22;7692;50.602;8.692;2023-12-29T10:44:07;10.40;99.90
15182;DHT22;7692;50.602;8.692;2023-12-29T10:46:35;10.40;99.90
15182;DHT22;7692;50.602;8.692;2023-12-29T10:49:07;10.30;99.90
15182;DHT22;7692;50.602;8.692;2023-12-29T10:51:36;10.30;99.90
15182;DHT22;7692;50.602;8.692;2023-12-29T10:54:06;10.30;99.90
15182;DHT22;7692;50.602;8.692;2023-12-29T10:56:34;10.40;99.90
15182;DHT22;7692;50.602;8.692;2023-12-29T10:59:04;10.40;99.90
15182;DHT22;7692;50.602;8.692;2023-12-29T11:01:35;10.50;99.90
15182;DHT22;7692;50.602;8.692;2023-12-29T11:04:05;10.40;99.90
15182;DHT22;7692;50.602;8.692;2023-12-29T11:06:40;10.40;99.90
15182;DHT22;7692;50.602;8.692;2023-12-29T11:09:11;10.40;99.90
15182;DHT22;7692;50.602;8.692;2023-12-29T11:11:40;10.30;99.90
15182;DHT22;7692;50.602;8.692;2023-12-29T11:14:10;10.30;99.90
15182;DHT22;7692;50.602;8.692;2023-12-29T11:16:39;10.30;99.90
15182;DHT22;7692;50.602;8.692;2023-12-29T11:19:11;10.30;99.90
15182;DHT22;7692;50.602;8.692;2023-12-29T11:21:41;10.30;99.90
15182;DHT22;7692;50.602;8.692;2023-12-29T11:24:11;10.30;99.90
15182;DHT22;7692;50.602;8.692;2023-12-29T11:26:49;10.30;99.90
15182;DHT22;7692;50.602;8.692;2023-12-29T11:29:17;10.30;99.90
15182;DHT22;7692;50.602;8.692;2023-12-29T11:31:46;10.30;99.90
15182;DHT22;7692;50.602;8.692;2023-12-29T11:34:20;10.30;99.90
15182;DHT22;7692;50.602;8.692;2023-12-29T11:36:59;10.30;99.90
15182;DHT22;7692;50.602;8.692;2023-12-29T11:39:40;10.30;99.90
15182;DHT22;7692;50.602;8.692;2023-12-29T11:42:17;10.30;99.90
15182;DHT22;7692;50.602;8.692;2023-12-29T11:44:47;10.30;99.90
15182;DHT22;7692;50.602;8.692;2023-12-29T11:47:34;10.30;99.90
15182;DHT22;7692;50.602;8.692;2023-12-29T11:50:02;10.30;99.90
15182;DHT22;7692;50.602;8.692;2023-12-29T11:52:33;10.30;99.90
15182;DHT22;7692;50.602;8.692;2023-12-29T11:55:10;10.40;99.90
15182;DHT22;7692;50.602;8.692;2023-12-29T11:57:38;10.30;99.90
15182;DHT22;7692;50.602;8.692;2023-12-29T12:00:08;10.40;99.90
15182;DHT22;7692;50.602;8.692;2023-12-29T12:02:39;10.40;99.90
15182;DHT22;7692;50.602;8.692;2023-12-29T12:05:09;10.50;99.90
15182;DHT22;7692;50.602;8.692;2023-12-29T12:07:57;10.50;99.90
15182;DHT22;7692;50.602;8.692;2023-12-29T12:10:30;10.50;99.90
15182;DHT22;7692;50.602;8.692;2023-12-29T12:13:00;10.50;99.90
15182;DHT22;7692;50.602;8.692;2023-12-29T12:15:33;10.50;99.90
15182;DHT22;7692;50.602;8.692;2023-12-29T12:18:02;10.60;99.90
15182;DHT22;7692;50.602;8.692;2023-12-29T12:20:33;10.60;99.90
15182;DHT22;7692;50.602;8.692;2023-12-29T12:23:07;10.70;99.90
15182;DHT22;7692;50.602;8.692;2023-12-29T12:25:40;10.70;99.90
15182;DHT22;7692;50.602;8.692;2023-12-29T12:28:10;10.80;99.90
15182;DHT22;7692;50.602;8.692;2023-12-29T12:30:41;10.70;99.90
15182;DHT22;7692;50.602;8.692;2023-12-29T12:33:13;10.80;99.90
15182;DHT22;7692;50.602;8.692;2023-12-29T12:35:41;10.80;99.90
15182;DHT22;7692;50.602;8.692;2023-12-29T12:38:12;10.80;99.90
15182;DHT22;7692;50.602;8.692;2023-12-29T12:40:44;10.80;99.90
15182;DHT22;7692;50.602;8.692;2023-12-29T12:43:14;10.80;99.90
15182;DHT22;7692;50.602;8.692;2023-12-29T12:45:47;10.80;99.90
15182;DHT22;7692;50.602;8.692;2023-12-29T12:48:21;10.80;99.90
15182;DHT22;7692;50.602;8.692;2023-12-29T12:50:50;10.80;99.90
15182;DHT22;7692;50.602;8.692;2023-12-29T12:53:21;10.80;99.90
15182;DHT22;7692;50.602;8.692;2023-12-29T12:55:51;10.80;99.90
15182;DHT22;7692;50.602;8.692;2023-12-29T12:58:21;10.80;99.90
15182;DHT22;7692;50.602;8.692;2023-12-29T13:00:50;10.80;99.90
15182;DHT22;7692;50.602;8.692;2023-12-29T13:03:30;10.70;99.90
15182;DHT22;7692;50.602;8.692;2023-12-29T13:06:00;10.70;99.90
15182;DHT22;7692;50.602;8.692;2023-12-29T13:08:32;10.70;99.90
15182;DHT22;7692;50.602;8.692;2023-12-29T13:11:10;10.70;99.90
15182;DHT22;7692;50.602;8.692;2023-12-29T13:13:41;10.70;99.90
15182;DHT22;7692;50.602;8.692;2023-12-29T13:16:10;10.70;99.90
15182;DHT22;7692;50.602;8.692;2023-12-29T13:18:40;10.70;99.90
15182;DHT22;7692;50.602;8.692;2023-12-29T13:21:08;10.80;99.90
15182;DHT22;7692;50.602;8.692;2023-12-29T13:23:37;10.80;99.90
15182;DHT22;7692;50.602;8.692;2023-12-29T13:26:07;10.80;99.90
15182;DHT22;7692;50.602;8.692;2023-12-29T13:28:37;10.80;99.90
15182;DHT22;7692;50.602;8.692;2023-12-29T13:31:07;10.80;99.90
15182;DHT22;7692;50.602;8.692;2023-12-29T13:33:45;10.70;99.90
15182;DHT22;7692;50.602;8.692;2023-12-29T13:36:22;10.70;99.90
15182;DHT22;7692;50.602;8.692;2023-12-29T13:38:53;10.70;99.90
15182;DHT22;7692;50.602;8.692;2023-12-29T13:41:22;10.70;99.90
15182;DHT22;7692;50.602;8.692;2023-12-29T13:43:55;10.70;99.90
15182;DHT22;7692;50.602;8.692;2023-12-29T13:46:23;10.60;99.90
15182;DHT22;7692;50.602;8.692;2023-12-29T13:48:53;10.50;99.90
15182;DHT22;7692;50.602;8.692;2023-12-29T13:51:23;10.50;99.90
15182;DHT22;7692;50.602;8.692;2023-12-29T13:53:58;10.50;99.90
15182;DHT22;7692;50.602;8.692;2023-12-29T13:56:26;10.50;99.90
15182;DHT22;7692;50.602;8.692;2023-12-29T13:58:56;10.50;99.90
15182;DHT22;7692;50.602;8.692;2023-12-29T14:01:24;10.50;99.90
15182;DHT22;7692;50.602;8.692;2023-12-29T14:03:58;10.40;99.90
15182;DHT22;7692;50.602;8.692;2023-12-29T14:06:30;10.40;99.90
15182;DHT22;7692;50.602;8.692;2023-12-29T14:09:00;10.40;99.90
15182;DHT22;7692;50.602;8.692;2023-12-29T14:11:28;10.40;99.90
15182;DHT22;7692;50.602;8.692;2023-12-29T14:13:59;10.40;99.90
15182;DHT22;7692;50.602;8.692;2023-12-29T14:16:27;10.30;99.90
15182;DHT22;7692;50.602;8.692;2023-12-29T14:18:56;10.30;99.90
15182;DHT22;7692;50.602;8.692;2023-12-29T14:21:27;10.30;99.90
15182;DHT22;7692;50.602;8.692;2023-12-29T14:24:08;10.30;99.90
15182;DHT22;7692;50.602;8.692;2023-12-29T14:26:38;10.30;99.90
15182;DHT22;7692;50.602;8.692;2023-12-29T14:29:12;10.20;99.90
15182;DHT22;7692;50.602;8.692;2023-12-29T14:31:41;10.30;99.90
15182;DHT22;7692;50.602;8.692;2023-12-29T14:34:10;10.30;99.90
15182;DHT22;7692;50.602;8.692;2023-12-29T14:36:40;10.30;99.90
15182;DHT22;7692;50.602;8.692;2023-12-29T14:39:10;10.30;99.90
15182;DHT22;7692;50.602;8.692;2023-12-29T14:41:38;10.30;99.90
15182;DHT22;7692;50.602;8.692;2023-12-29T14:44:08;10.30;99.90
15182;DHT22;7692;50.602;8.692;2023-12-29T14:46:36;10.30;99.90
15182;DHT22;7692;50.602;8.692;2023-12-29T14:49:04;10.40;99.90
15182;DHT22;7692;50.602;8.692;2023-12-29T14:51:33;10.30;99.90
15182;DHT22;7692;50.602;8.692;2023-12-29T14:54:01;10.30;99.90
15182;DHT22;7692;50.602;8.692;2023-12-29T14:56:31;10.30;99.90
15182;DHT22;7692;50.602;8.692;2023-12-29T14:58:59;10.30;99.90
15182;DHT22;7692;50.602;8.692;2023-12-29T15:01:28;10.30;99.90
15182;DHT22;7692;50.602;8.692;2023-12-29T15:03:56;10.40;99.90
15182;DHT22;7692;50.602;8.692;2023-12-29T15:06:24;10.40;99.90
15182;DHT22;7692;50.602;8.692;2023-12-29T15:08:52;10.30;99.90
15182;DHT22;7692;50.602;8.692;2023-12-29T15:11:20;10.30;99.90
15182;DHT22;7692;50.602;8.692;2023-12-29T15:13:49;10.30;99.90
15182;DHT22;7692;50.602;8.692;2023-12-29T15:16:17;10.30;99.90
15182;DHT22;7692;50.602;8.692;2023-12-29T15:18:49;10.30;99.90
15182;DHT22;7692;50.602;8.692;2023-12-29T15:21:17;10.40;99.90
15182;DHT22;7692;50.602;8.692;2023-12-29T15:23:45;10.40;99.90
15182;DHT22;7692;50.602;8.692;2023-12-29T15:26:13;10.40;99.90
15182;DHT22;7692;50.602;8.692;2023-12-29T15:28:44;10.40;99.90
15182;DHT22;7692;50.602;8.692;2023-12-29T15:31:12;10.40;99.90
15182;DHT22;7692;50.602;8.692;2023-12-29T15:33:43;10.40;99.90
15182;DHT22;7692;50.602;8.692;2023-12-29T15:36:13;10.30;99.90
15182;DHT22;7692;50.602;8.692;2023-12-29T15:38:44;10.30;99.90
15182;DHT22;7692;50.602;8.692;2023-12-29T15:41:12;10.30;99.90
15182;DHT22;7692;50.602;8.692;2023-12-29T15:43:40;10.30;99.90
15182;DHT22;7692;50.602;8.692;2023-12-29T15:46:13;10.30;99.90
15182;DHT22;7692;50.602;8.692;2023-12-29T15:48:41;10.30;99.90
15182;DHT22;7692;50.602;8.692;2023-12-29T15:51:09;10.20;99.90
15182;DHT22;7692;50.602;8.692;2023-12-29T15:53:39;10.20;99.90
15182;DHT22;7692;50.602;8.692;2023-12-29T15:56:07;10.20;99.90
15182;DHT22;7692;50.602;8.692;2023-12-29T15:58:35;10.10;99.90
15182;DHT22;7692;50.602;8.692;2023-12-29T16:01:03;10.10;99.90
15182;DHT22;7692;50.602;8.692;2023-12-29T16:03:31;10.10;99.90
15182;DHT22;7692;50.602;8.692;2023-12-29T16:06:00;10.00;99.90
15182;DHT22;7692;50.602;8.692;2023-12-29T16:08:30;10.00;99.90
15182;DHT22;7692;50.602;8.692;2023-12-29T16:11:00;10.00;99.90
15182;DHT22;7692;50.602;8.692;2023-12-29T16:13:28;10.00;99.90
15182;DHT22;7692;50.602;8.692;2023-12-29T16:15:56;9.90;99.90
15182;DHT22;7692;50.602;8.692;2023-12-29T16:18:24;9.90;99.90
15182;DHT22;7692;50.602;8.692;2023-12-29T16:20:52;9.90;99.90
15182;DHT22;7692;50.602;8.692;2023-12-29T16:23:20;9.90;99.90
15182;DHT22;7692;50.602;8.692;2023-12-29T16:25:48;9.90;99.90
15182;DHT22;7692;50.602;8.692;2023-12-29T16:28:17;9.90;99.90
15182;DHT22;7692;50.602;8.692;2023-12-29T16:30:46;9.90;99.90
15182;DHT22;7692;50.602;8.692;2023-12-29T16:33:14;9.90;99.90
15182;DHT22;7692;50.602;8.692;2023-12-29T16:35:42;10.00;99.90
15182;DHT22;7692;50.602;8.692;2023-12-29T16:38:10;10.00;99.90
15182;DHT22;7692;50.602;8.692;2023-12-29T16:40:38;10.00;99.90
15182;DHT22;7692;50.602;8.692;2023-12-29T16:43:09;10.00;99.90
15182;DHT22;7692;50.602;8.692;2023-12-29T16:45:39;10.10;99.90
15182;DHT22;7692;50.602;8.692;2023-12-29T16:48:07;10.10;99.90
15182;DHT22;7692;50.602;8.692;2023-12-29T16:50:35;10.10;99.90
15182;DHT22;7692;50.602;8.692;2023-12-29T16:53:03;10.10;99.90
15182;DHT22;7692;50.602;8.692;2023-12-29T16:55:31;10.10;99.90
15182;DHT22;7692;50.602;8.692;2023-12-29T16:58:00;10.10;99.90